EDT,Max TemperatureF,Mean TemperatureF,Min TemperatureF,Max Dew PointF,MeanDew PointF,Min DewpointF,Max Humidity, Mean Humidity, Min Humidity, Max Sea Level PressureIn, Mean Sea Level PressureIn, Min Sea Level PressureIn, Max VisibilityMiles, Mean VisibilityMiles, Min VisibilityMiles, Max Wind SpeedMPH, Mean Wind SpeedMPH, Max Gust SpeedMPH,PrecipitationIn, CloudCover, Events, WindDirDegrees
2013-5-1,78,69,59,49,42,29,67,44,21,30.35,30.31,30.25,10,10,10,16,8,20,T,4,,161
2013-5-2,76,66,56,43,36,31,40,32,23,30.43,30.34,30.28,10,10,10,16,8,20,0.00,1,,147
2013-5-3,77,64,51,45,42,37,66,48,29,30.32,30.27,30.22,10,10,10,17,6,23,0.00,4,,153
2013-5-4,75,64,53,43,40,35,55,42,29,30.30,30.23,30.16,10,10,10,16,7,22,0.00,1,,143
2013-5-5,76,62,47,44,41,35,80,52,23,30.22,30.16,30.10,10,10,10,16,6,22,0.00,1,,140
2013-5-6,74,62,50,43,38,35,74,51,27,30.17,30.11,30.04,10,10,10,18,7,21,0.00,2,,102
2013-5-7,77,64,51,52,50,46,83,63,43,30.14,30.08,30.03,10,10,10,16,5,20,0.00,5,,82
2013-5-8,70,63,55,61,55,49,100,81,61,30.07,30.00,29.93,10,9,1,18,6,35,0.23,7,Rain,86
2013-5-9,71,64,57,59,57,55,93,77,61,29.96,29.91,29.87,10,8,1,16,6,23,0.62,7,Rain,275
2013-5-10,74,64,54,63,57,52,93,76,59,29.96,29.86,29.73,10,9,2,24,5,32,0.48,7,Rain-Thunderstorm,191
2013-5-11,60,53,46,58,50,43,93,80,66,29.79,29.73,29.66,10,10,5,26,12,33,0.03,6,Rain,247
2013-5-12,51,45,38,45,35,28,86,66,46,29.94,29.80,29.69,10,10,7,32,18,44,0.03,6,Rain,262
2013-5-13,50,43,35,33,30,28,82,64,46,30.14,30.05,29.94,10,10,10,25,13,35,T,5,Rain,263
2013-5-14,60,46,32,35,32,27,89,60,31,30.18,30.10,29.98,10,10,10,13,6,15,0.00,5,,233
2013-5-15,81,64,47,59,45,33,80,60,39,29.96,29.71,29.52,10,9,2,35,11,51,0.19,6,Rain-Thunderstorm,193
2013-5-16,76,63,50,48,42,34,80,52,23,30.02,29.82,29.75,10,10,10,26,12,36,0.00,2,,283
2013-5-17,66,54,41,43,39,32,92,61,30,30.24,30.18,30.04,10,10,10,13,3,17,0.00,5,,23
2013-5-18,71,57,43,48,43,40,89,64,38,30.28,30.22,30.16,10,10,10,14,6,20,0.00,5,,90
2013-5-19,81,70,59,61,56,50,80,66,52,30.15,30.08,29.99,10,10,10,16,7,23,0.00,7,,176
2013-5-20,83,73,63,66,62,57,84,70,55,30.05,29.97,29.87,10,10,10,22,8,33,0.00,4,,188
2013-5-21,86,75,63,69,63,59,93,74,55,29.92,29.83,29.76,10,9,2,22,6,25,0.12,7,Rain-Thunderstorm,73
2013-5-22,87,75,63,71,64,61,93,72,50,29.81,29.74,29.65,10,8,0,21,6,30,0.40,7,Rain-Thunderstorm,234
2013-5-23,77,61,44,63,56,43,86,70,53,29.90,29.77,29.70,10,10,6,21,11,30,0.04,8,Rain-Thunderstorm,275
2013-5-24,52,46,39,42,38,35,93,74,54,30.21,30.10,29.91,10,7,2,20,12,25,0.14,8,Rain,334
2013-5-25,59,50,40,37,34,32,85,61,37,30.23,30.20,30.15,10,10,10,23,12,31,0.00,3,,320
2013-5-26,63,54,44,37,34,30,71,51,30,30.22,30.19,30.14,10,10,10,22,11,31,0.00,1,,302
2013-5-27,71,56,40,42,37,30,92,59,26,30.29,30.22,30.16,10,10,10,13,4,20,0.00,3,,284
2013-5-28,64,57,50,61,53,40,97,76,55,30.17,30.05,29.95,10,9,0,14,5,16,0.90,8,Fog-Rain-Thunderstorm,158
2013-5-29,82,72,61,66,63,60,93,72,51,30.03,29.96,29.91,10,9,1,28,11,39,0.78,6,Rain-Thunderstorm,242
2013-5-30,88,76,63,66,63,57,93,65,36,30.12,30.08,30.04,10,10,10,17,6,22,0.00,3,,249
2013-5-31,90,79,68,68,64,62,84,63,41,30.08,30.02,29.93,10,10,10,16,7,23,0.00,4,,240